Manti, Utah
Current Conditions -  °F | °C
As of 6:15 AM on Friday 28 Nov 2014 (Local Time) from KDTA Reporting Station
Clear Clear  
Wind Chill: 40°   Ceiling: Unl
Heat Index: 40°   Visibility: 10mi
Dew Point: 18°   Wind: 3mph
Humidity: 41%   Direction: 170°S
Pressure: 30.09"   Gusts: NA
Location:  39.27°N, 111.64°W
Report Text: KDTA 281315Z AUTO 17003KT 10SM CLR 05/M08 A3009 RMK AO1 T00451079
Loading
Personal Weather Stations






























Interactive Weather Map New forecast layout! Learn more

10-Day Weather Forecast

Advertisements
Track Severe Weather on mobile